createdAt,value
2017-07-07T00:02:15.081Z,3.30
2017-07-07T00:04:41.248Z,3.28
2017-07-07T00:07:07.423Z,4.28
2017-07-07T00:09:34.416Z,3.60
2017-07-07T00:12:00.600Z,3.58
2017-07-07T00:14:26.804Z,3.65
2017-07-07T00:16:53.056Z,3.83
2017-07-07T00:19:19.241Z,3.80
2017-07-07T00:21:45.457Z,3.03
2017-07-07T00:24:11.634Z,3.78
2017-07-07T00:26:37.812Z,3.40
2017-07-07T00:29:04.042Z,3.28
2017-07-07T00:31:30.208Z,3.28
2017-07-07T00:33:57.104Z,3.40
2017-07-07T00:36:23.344Z,4.07
2017-07-07T00:38:49.517Z,4.45
2017-07-07T00:41:15.689Z,3.78
2017-07-07T00:43:41.872Z,4.35
2017-07-07T00:46:08.072Z,3.70
2017-07-07T00:48:34.979Z,3.35
2017-07-07T00:51:01.140Z,3.67
2017-07-07T00:53:27.332Z,3.58
2017-07-07T00:55:53.502Z,3.55
2017-07-07T00:58:20.421Z,3.50
2017-07-07T01:00:46.640Z,3.30
2017-07-07T01:03:12.877Z,3.40
2017-07-07T01:05:39.035Z,3.50
2017-07-07T01:08:05.960Z,3.50
2017-07-07T01:10:32.152Z,3.20
2017-07-07T01:12:58.316Z,3.40
2017-07-07T01:15:24.539Z,3.70
2017-07-07T01:17:50.733Z,3.03
2017-07-07T01:20:16.904Z,3.37
2017-07-07T01:22:43.088Z,3.42
2017-07-07T01:25:09.268Z,3.50
2017-07-07T01:27:35.424Z,3.33
2017-07-07T01:30:01.632Z,3.20
2017-07-07T01:32:27.828Z,3.03
2017-07-07T01:34:54.004Z,3.30
2017-07-07T01:37:20.224Z,2.85
2017-07-07T01:39:46.420Z,3.20
2017-07-07T01:42:13.353Z,2.70
2017-07-07T01:44:39.587Z,3.30
2017-07-07T01:47:06.519Z,2.58
2017-07-07T01:49:32.712Z,2.83
2017-07-07T01:51:58.941Z,3.05
2017-07-07T01:54:25.128Z,3.40
2017-07-07T01:56:51.404Z,2.90
2017-07-07T01:59:17.617Z,2.90
2017-07-07T02:01:43.836Z,3.25
2017-07-07T02:04:10.017Z,3.47
2017-07-07T02:06:36.188Z,3.10
2017-07-07T02:09:02.511Z,2.60
2017-07-07T02:11:28.692Z,2.95
2017-07-07T02:13:54.868Z,2.75
2017-07-07T02:16:21.085Z,2.90
2017-07-07T02:18:47.248Z,2.90
2017-07-07T02:21:13.451Z,2.95
2017-07-07T02:23:39.614Z,2.87
2017-07-07T02:26:05.839Z,3.00
2017-07-07T02:28:32.035Z,3.20
2017-07-07T02:30:58.262Z,3.00
2017-07-07T02:33:24.532Z,3.05
2017-07-07T02:35:50.703Z,2.72
2017-07-07T02:38:16.918Z,3.12
2017-07-07T02:40:43.116Z,2.92
2017-07-07T02:43:09.320Z,3.05
2017-07-07T02:45:35.496Z,3.12
2017-07-07T02:48:01.696Z,3.30
2017-07-07T02:50:27.869Z,3.28
2017-07-07T02:52:54.083Z,4.25
2017-07-07T02:55:20.252Z,4.40
2017-07-07T02:57:46.431Z,4.40
2017-07-07T03:00:12.647Z,5.20
2017-07-07T03:02:39.560Z,4.93
2017-07-07T03:05:05.809Z,4.72
2017-07-07T03:07:32.764Z,5.07
2017-07-07T03:09:59.769Z,4.25
2017-07-07T03:12:26.016Z,5.53
2017-07-07T03:14:52.259Z,5.25
2017-07-07T03:17:19.168Z,4.40
2017-07-07T03:19:45.341Z,5.55
2017-07-07T03:22:11.537Z,5.00
2017-07-07T03:24:37.751Z,5.20
2017-07-07T03:27:03.933Z,5.35
2017-07-07T03:29:30.111Z,5.68
2017-07-07T03:31:56.324Z,5.65
2017-07-07T03:34:22.530Z,5.32
2017-07-07T03:36:48.716Z,4.80
2017-07-07T03:39:14.920Z,5.00
2017-07-07T03:41:41.119Z,4.72
2017-07-07T03:44:07.301Z,4.60
2017-07-07T03:46:33.497Z,4.80
2017-07-07T03:48:59.684Z,4.15
2017-07-07T03:51:25.900Z,4.55
2017-07-07T03:53:52.081Z,4.03
2017-07-07T03:56:18.260Z,3.75
2017-07-07T03:58:44.465Z,3.35
2017-07-07T04:01:11.377Z,3.78
2017-07-07T04:03:38.036Z,3.60
2017-07-07T04:06:04.217Z,2.78
2017-07-07T04:08:30.411Z,3.10
2017-07-07T04:10:56.673Z,3.30
2017-07-07T04:13:22.885Z,2.60
2017-07-07T04:15:49.097Z,3.60
2017-07-07T04:18:15.340Z,3.33
2017-07-07T04:20:41.507Z,3.30
2017-07-07T04:23:07.701Z,3.60
2017-07-07T04:25:33.894Z,4.05
2017-07-07T04:28:00.909Z,3.33
2017-07-07T04:30:27.114Z,4.20
2017-07-07T04:32:53.291Z,4.30
2017-07-07T04:35:20.253Z,4.05
2017-07-07T04:37:46.435Z,3.72
2017-07-07T04:40:12.669Z,4.37
2017-07-07T04:42:38.863Z,3.40
2017-07-07T04:45:05.157Z,3.85
2017-07-07T04:47:31.372Z,3.80
2017-07-07T04:49:57.592Z,3.50
2017-07-07T04:52:23.753Z,3.60
2017-07-07T04:54:49.953Z,3.10
2017-07-07T04:57:16.204Z,2.85
2017-07-07T04:59:42.368Z,3.28
2017-07-07T05:02:08.572Z,3.45
2017-07-07T05:04:34.740Z,3.08
2017-07-07T05:07:00.931Z,3.15
2017-07-07T05:09:27.118Z,3.17
2017-07-07T05:11:53.442Z,3.50
2017-07-07T05:14:19.648Z,3.75
2017-07-07T05:16:45.864Z,3.75
2017-07-07T05:19:12.096Z,3.80
2017-07-07T05:21:38.277Z,4.00
2017-07-07T05:24:04.477Z,3.85
2017-07-07T05:26:30.654Z,4.15
2017-07-07T05:28:56.883Z,4.62
2017-07-07T05:31:23.053Z,4.25
2017-07-07T05:33:49.992Z,4.00
2017-07-07T05:36:17.017Z,3.60
2017-07-07T05:38:43.198Z,3.72
2017-07-07T05:41:09.358Z,3.53
2017-07-07T05:43:35.564Z,3.62
2017-07-07T05:46:01.772Z,3.35
2017-07-07T05:48:27.972Z,3.90
2017-07-07T05:50:54.204Z,3.50
2017-07-07T05:53:20.372Z,3.90
2017-07-07T05:55:46.576Z,3.95
2017-07-07T05:58:12.752Z,4.12
2017-07-07T06:00:38.979Z,3.75
2017-07-07T06:03:05.188Z,4.12
2017-07-07T06:05:31.363Z,3.90
2017-07-07T06:07:59.285Z,3.95
2017-07-07T06:10:25.524Z,4.05
2017-07-07T06:12:51.709Z,3.25
2017-07-07T06:15:17.960Z,3.20
2017-07-07T06:17:43.940Z,2.97
2017-07-07T06:20:10.654Z,3.72
2017-07-07T06:22:36.850Z,3.00
2017-07-07T06:25:03.023Z,3.40
2017-07-07T06:27:29.249Z,3.70
2017-07-07T06:29:55.472Z,3.20
2017-07-07T06:32:21.683Z,2.95
2017-07-07T06:34:47.897Z,2.62
2017-07-07T06:37:14.106Z,3.37
2017-07-07T06:39:40.356Z,2.85
2017-07-07T06:42:06.574Z,2.80
2017-07-07T06:44:32.789Z,2.83
2017-07-07T06:46:58.986Z,2.87
2017-07-07T06:49:25.200Z,3.00
2017-07-07T06:51:52.952Z,3.20
2017-07-07T06:54:19.182Z,3.20
2017-07-07T06:56:45.361Z,3.58
2017-07-07T06:59:11.540Z,2.87
2017-07-07T07:01:38.491Z,2.78
2017-07-07T07:04:05.449Z,2.97
2017-07-07T07:06:31.628Z,2.70
2017-07-07T07:08:57.803Z,2.75
2017-07-07T07:11:24.053Z,3.65
2017-07-07T07:13:50.254Z,2.65
2017-07-07T07:16:16.558Z,2.60
2017-07-07T07:18:42.740Z,1.83
2017-07-07T07:21:08.928Z,2.00
2017-07-07T07:23:35.877Z,2.05
2017-07-07T07:26:02.051Z,1.80
2017-07-07T07:28:28.241Z,2.00
2017-07-07T07:30:54.470Z,1.83
2017-07-07T07:33:21.368Z,2.05
2017-07-07T07:35:47.545Z,1.77
2017-07-07T07:38:13.762Z,1.73
2017-07-07T07:40:39.969Z,1.70
2017-07-07T07:43:06.898Z,1.45
2017-07-07T07:45:33.120Z,1.92
2017-07-07T07:47:59.326Z,1.60
2017-07-07T07:50:25.523Z,1.40
2017-07-07T07:52:51.732Z,2.10
2017-07-07T07:55:18.678Z,1.80
2017-07-07T07:57:45.636Z,2.08
2017-07-07T08:00:11.805Z,1.62
2017-07-07T08:02:37.984Z,2.05
2017-07-07T08:05:04.204Z,1.60
2017-07-07T08:07:31.125Z,1.52
2017-07-07T08:09:57.340Z,1.70
2017-07-07T08:12:23.512Z,1.62
2017-07-07T08:14:49.680Z,1.80
2017-07-07T08:17:15.881Z,1.67
2017-07-07T08:19:42.062Z,2.00
2017-07-07T08:22:08.281Z,1.80
2017-07-07T08:24:34.456Z,2.70
2017-07-07T08:27:00.623Z,2.35
2017-07-07T08:29:26.824Z,2.05
2017-07-07T08:31:53.020Z,2.45
2017-07-07T08:34:19.213Z,2.30
2017-07-07T08:36:45.404Z,2.35
2017-07-07T08:39:11.588Z,1.85
2017-07-07T08:41:38.587Z,1.92
2017-07-07T08:44:04.768Z,2.08
2017-07-07T08:46:31.716Z,1.80
2017-07-07T08:48:57.908Z,1.90
2017-07-07T08:51:24.107Z,2.03
2017-07-07T08:53:50.348Z,2.10
2017-07-07T08:56:16.553Z,2.33
2017-07-07T08:58:42.729Z,1.90
2017-07-07T09:01:08.928Z,1.77
2017-07-07T09:03:35.117Z,2.25
2017-07-07T09:06:01.368Z,2.37
2017-07-07T09:08:27.613Z,2.05
2017-07-07T09:10:53.793Z,2.20
2017-07-07T09:13:19.989Z,2.00
2017-07-07T09:15:46.168Z,1.90
2017-07-07T09:18:12.379Z,1.98
2017-07-07T09:20:38.565Z,2.05
2017-07-07T09:23:04.773Z,2.08
2017-07-07T09:25:30.973Z,1.87
2017-07-07T09:27:57.159Z,1.85
2017-07-07T09:30:24.181Z,1.80
2017-07-07T09:32:50.365Z,1.70
2017-07-07T09:35:16.546Z,2.12
2017-07-07T09:37:42.763Z,2.20
2017-07-07T09:40:08.945Z,1.90
2017-07-07T09:42:35.051Z,1.62
2017-07-07T09:45:01.264Z,1.87
2017-07-07T09:47:27.476Z,1.65
2017-07-07T09:49:53.653Z,1.80
2017-07-07T09:52:19.860Z,1.65
2017-07-07T09:54:46.781Z,1.80
2017-07-07T09:57:12.954Z,2.00
2017-07-07T09:59:39.148Z,2.22
2017-07-07T10:02:06.055Z,2.17
2017-07-07T10:04:32.297Z,2.03
2017-07-07T10:06:58.505Z,2.15
2017-07-07T10:09:24.678Z,2.00
2017-07-07T10:11:51.625Z,1.90
2017-07-07T10:14:18.541Z,1.85
2017-07-07T10:16:44.762Z,2.08
2017-07-07T10:19:10.949Z,1.60
2017-07-07T10:21:37.229Z,1.90
2017-07-07T10:24:03.375Z,1.90
2017-07-07T10:26:30.326Z,2.03
2017-07-07T10:28:57.293Z,2.10
2017-07-07T10:31:23.478Z,1.75
2017-07-07T10:33:49.668Z,1.98
2017-07-07T10:36:15.856Z,1.95
2017-07-07T10:38:42.072Z,1.83
2017-07-07T10:41:09.005Z,2.55
2017-07-07T10:43:35.218Z,2.12
2017-07-07T10:46:01.460Z,2.42
2017-07-07T10:48:27.647Z,2.30
2017-07-07T10:50:53.817Z,2.17
2017-07-07T10:53:20.796Z,2.45
2017-07-07T10:55:46.972Z,2.17
2017-07-07T10:58:13.160Z,2.33
2017-07-07T11:00:39.380Z,2.10
2017-07-07T11:03:05.572Z,2.33
2017-07-07T11:05:32.523Z,2.15
2017-07-07T11:07:59.467Z,2.20
2017-07-07T11:10:26.402Z,2.20
2017-07-07T11:12:53.344Z,2.05
2017-07-07T11:15:20.249Z,1.87
2017-07-07T11:17:46.456Z,1.80
2017-07-07T11:20:12.648Z,2.37
2017-07-07T11:22:39.640Z,2.08
2017-07-07T11:25:05.820Z,1.62
2017-07-07T11:27:32.015Z,1.95
2017-07-07T11:29:58.235Z,1.67
2017-07-07T11:32:24.412Z,1.40
2017-07-07T11:34:50.600Z,2.20
2017-07-07T11:37:16.816Z,1.75
2017-07-07T11:39:43.008Z,2.00
2017-07-07T11:42:09.175Z,2.20
2017-07-07T11:44:36.145Z,1.75
2017-07-07T11:47:03.060Z,1.90
2017-07-07T11:49:29.253Z,2.20
2017-07-07T11:51:55.469Z,2.25
2017-07-07T11:54:21.714Z,2.30
2017-07-07T11:56:47.888Z,2.28
2017-07-07T11:59:14.067Z,1.90
2017-07-07T12:01:40.285Z,2.00
2017-07-07T12:04:06.477Z,2.05
2017-07-07T12:06:33.419Z,2.40
2017-07-07T12:08:59.673Z,2.08
2017-07-07T12:11:25.874Z,2.22
2017-07-07T12:13:52.066Z,2.37
2017-07-07T12:16:18.285Z,2.42
2017-07-07T12:18:44.481Z,2.50
2017-07-07T12:21:10.706Z,2.55
2017-07-07T12:23:36.884Z,2.25
2017-07-07T12:26:03.097Z,2.40
2017-07-07T12:28:29.341Z,2.10
2017-07-07T12:30:55.517Z,2.17
2017-07-07T12:33:21.745Z,2.28
2017-07-07T12:35:47.966Z,2.33
2017-07-07T12:38:14.936Z,2.75
2017-07-07T12:40:41.126Z,2.30
2017-07-07T12:43:07.317Z,2.08
2017-07-07T12:45:33.567Z,2.33
2017-07-07T12:47:59.742Z,2.33
2017-07-07T12:50:25.978Z,2.08
2017-07-07T12:52:52.184Z,2.55
2017-07-07T12:55:18.389Z,2.30
2017-07-07T12:57:45.335Z,2.90
2017-07-07T13:00:12.352Z,3.25
2017-07-07T13:02:38.558Z,2.80
2017-07-07T13:05:04.741Z,2.65
2017-07-07T13:07:30.978Z,3.00
2017-07-07T13:09:57.229Z,3.75
2017-07-07T13:12:23.401Z,3.70
2017-07-07T13:14:49.576Z,4.10
2017-07-07T13:17:15.788Z,3.30
2017-07-07T13:19:41.976Z,4.03
2017-07-07T13:22:08.171Z,3.60
2017-07-07T13:24:34.381Z,3.37
2017-07-07T13:27:00.577Z,3.58
2017-07-07T13:29:27.545Z,3.78
2017-07-07T13:31:53.740Z,3.70
2017-07-07T13:34:19.932Z,3.70
2017-07-07T13:36:46.229Z,3.60
2017-07-07T13:39:12.453Z,3.65
2017-07-07T13:41:38.645Z,3.67
2017-07-07T13:44:04.887Z,3.50
2017-07-07T13:46:31.824Z,3.83
2017-07-07T13:48:58.061Z,3.47
2017-07-07T13:51:25.036Z,3.85
2017-07-07T13:53:51.252Z,3.28
2017-07-07T13:56:17.453Z,3.70
2017-07-07T13:58:44.394Z,3.10
2017-07-07T14:01:10.602Z,4.07
2017-07-07T14:03:36.813Z,3.78
2017-07-07T14:06:02.998Z,3.60
2017-07-07T14:08:29.253Z,3.35
2017-07-07T14:10:55.451Z,3.30
2017-07-07T14:13:21.661Z,3.90
2017-07-07T14:15:48.581Z,3.70
2017-07-07T14:18:14.782Z,3.35
2017-07-07T14:20:41.014Z,3.53
2017-07-07T14:23:07.225Z,3.58
2017-07-07T14:25:33.487Z,3.58
2017-07-07T14:27:59.681Z,3.70
2017-07-07T14:30:25.886Z,3.70
2017-07-07T14:32:52.096Z,4.15
2017-07-07T14:35:19.057Z,3.72
2017-07-07T14:37:45.316Z,3.85
2017-07-07T14:40:11.521Z,4.22
2017-07-07T14:42:37.739Z,3.70
2017-07-07T14:45:03.924Z,3.65
2017-07-07T14:47:30.094Z,3.78
2017-07-07T14:49:56.292Z,4.07
2017-07-07T14:52:22.469Z,3.90
2017-07-07T14:54:48.688Z,3.80
2017-07-07T14:57:14.892Z,3.97
2017-07-07T14:59:41.817Z,4.22
2017-07-07T15:02:08.041Z,3.90
2017-07-07T15:04:34.244Z,4.22
2017-07-07T15:07:00.428Z,3.50
2017-07-07T15:09:26.642Z,4.05
2017-07-07T15:11:53.619Z,3.90
2017-07-07T15:14:19.825Z,4.18
2017-07-07T15:16:46.013Z,4.00
2017-07-07T15:19:12.211Z,3.80
2017-07-07T15:21:38.458Z,4.00
2017-07-07T15:24:04.656Z,4.32
2017-07-07T15:26:30.827Z,4.07
2017-07-07T15:28:57.022Z,4.15
2017-07-07T15:31:23.229Z,3.90
2017-07-07T15:33:49.448Z,3.72
2017-07-07T15:36:15.631Z,4.78
2017-07-07T15:38:41.857Z,3.58
2017-07-07T15:41:08.061Z,3.70
2017-07-07T15:43:34.249Z,3.90
2017-07-07T15:46:00.454Z,4.20
2017-07-07T15:48:26.627Z,3.60
2017-07-07T15:50:52.824Z,3.53
2017-07-07T15:53:19.044Z,4.10
2017-07-07T15:55:45.212Z,3.72
2017-07-07T15:58:11.393Z,3.85
2017-07-07T16:00:38.362Z,3.80
2017-07-07T16:03:04.580Z,4.10
2017-07-07T16:05:30.756Z,3.62
2017-07-07T16:07:56.968Z,3.80
2017-07-07T16:10:23.179Z,4.57
2017-07-07T16:12:49.352Z,3.75
2017-07-07T16:15:15.658Z,4.75
2017-07-07T16:17:41.858Z,3.87
2017-07-07T16:20:08.052Z,4.20
2017-07-07T16:22:34.584Z,4.00
2017-07-07T16:25:01.510Z,4.25
2017-07-07T16:27:27.700Z,3.55
2017-07-07T16:29:53.896Z,3.72
2017-07-07T16:32:20.104Z,3.45
2017-07-07T16:34:47.020Z,3.85
2017-07-07T16:37:13.188Z,3.92
2017-07-07T16:39:40.127Z,4.05
2017-07-07T16:42:06.324Z,4.00
2017-07-07T16:44:32.516Z,4.05
2017-07-07T16:46:58.690Z,3.80
2017-07-07T16:49:24.898Z,4.62
2017-07-07T16:51:51.077Z,3.50
2017-07-07T16:54:17.252Z,3.87
2017-07-07T16:56:43.508Z,3.95
2017-07-07T16:59:10.441Z,3.50
2017-07-07T17:01:36.628Z,4.35
2017-07-07T17:04:02.841Z,3.85
2017-07-07T17:06:29.068Z,3.78
2017-07-07T17:08:55.239Z,4.22
2017-07-07T17:11:21.454Z,3.53
2017-07-07T17:13:47.646Z,4.28
2017-07-07T17:16:13.843Z,3.97
2017-07-07T17:18:40.796Z,3.80
2017-07-07T17:21:07.736Z,3.87
2017-07-07T17:23:34.680Z,4.35
2017-07-07T17:26:00.889Z,3.83
2017-07-07T17:28:27.074Z,3.75
2017-07-07T17:30:53.308Z,3.42
2017-07-07T17:33:19.504Z,3.50
2017-07-07T17:35:45.681Z,3.40
2017-07-07T17:38:11.896Z,3.20
2017-07-07T17:40:38.077Z,3.15
2017-07-07T17:43:05.001Z,3.33
2017-07-07T17:45:31.192Z,3.00
2017-07-07T17:47:57.421Z,3.00
2017-07-07T17:50:23.609Z,2.85
2017-07-07T17:52:49.792Z,2.35
2017-07-07T17:55:15.993Z,2.25
2017-07-07T17:57:42.181Z,2.40
2017-07-07T18:00:09.150Z,2.42
2017-07-07T18:02:35.349Z,2.75
2017-07-07T18:05:02.276Z,2.75
2017-07-07T18:07:28.467Z,3.45
2017-07-07T18:09:54.690Z,4.85
2017-07-07T18:12:20.946Z,3.70
2017-07-07T18:14:47.148Z,4.60
2017-07-07T18:17:13.340Z,4.18
2017-07-07T18:19:39.515Z,4.00
2017-07-07T18:22:05.696Z,3.33
2017-07-07T18:24:31.894Z,3.00
2017-07-07T18:26:58.094Z,3.15
2017-07-07T18:29:25.201Z,2.58
2017-07-07T18:31:51.387Z,2.12
2017-07-07T18:34:17.555Z,2.90
2017-07-07T18:36:43.760Z,2.45
2017-07-07T18:39:10.703Z,2.70
2017-07-07T18:41:37.631Z,2.50
2017-07-07T18:44:03.855Z,2.50
2017-07-07T18:46:30.040Z,2.72
2017-07-07T18:48:56.219Z,3.00
2017-07-07T18:51:22.419Z,3.03
2017-07-07T18:53:48.616Z,2.92
2017-07-07T18:56:14.802Z,3.00
2017-07-07T18:58:41.776Z,3.22
2017-07-07T19:01:08.066Z,2.83
2017-07-07T19:03:34.257Z,2.53
2017-07-07T19:06:00.441Z,3.15
2017-07-07T19:08:27.385Z,3.00
2017-07-07T19:10:54.296Z,2.80
2017-07-07T19:13:20.548Z,2.95
2017-07-07T19:15:47.474Z,3.12
2017-07-07T19:18:13.663Z,3.60
2017-07-07T19:20:39.883Z,3.00
2017-07-07T19:23:06.109Z,2.60
2017-07-07T19:25:32.292Z,3.10
2017-07-07T19:27:58.524Z,3.47
2017-07-07T19:30:24.694Z,3.35
2017-07-07T19:32:50.933Z,3.87
2017-07-07T19:35:17.108Z,3.40
2017-07-07T19:37:44.024Z,3.83
2017-07-07T19:40:10.224Z,3.33
2017-07-07T19:42:36.409Z,4.10
2017-07-07T19:45:03.405Z,3.65
2017-07-07T19:47:29.587Z,4.05
2017-07-07T19:49:56.514Z,4.35
2017-07-07T19:52:22.713Z,3.83
2017-07-07T19:54:48.960Z,3.92
2017-07-07T19:57:15.168Z,4.32
2017-07-07T19:59:41.337Z,4.45
2017-07-07T20:02:08.252Z,4.28
2017-07-07T20:04:34.460Z,4.10
2017-07-07T20:07:00.668Z,4.03
2017-07-07T20:09:26.854Z,4.50
2017-07-07T20:11:53.052Z,4.25
2017-07-07T20:14:19.247Z,4.00
2017-07-07T20:16:45.484Z,4.00
2017-07-07T20:19:11.706Z,3.80
2017-07-07T20:21:37.851Z,4.12
2017-07-07T20:24:04.060Z,4.22
2017-07-07T20:26:30.248Z,4.10
2017-07-07T20:28:57.188Z,5.03
2017-07-07T20:31:24.141Z,4.80
2017-07-07T20:33:51.136Z,4.03
2017-07-07T20:36:17.338Z,4.50
2017-07-07T20:38:43.520Z,4.10
2017-07-07T20:41:09.715Z,4.00
2017-07-07T20:43:36.057Z,4.03
2017-07-07T20:46:02.261Z,5.07
2017-07-07T20:48:28.440Z,4.90
2017-07-07T20:50:55.412Z,4.95
2017-07-07T20:53:21.625Z,4.93
2017-07-07T20:55:48.584Z,4.70
2017-07-07T20:58:14.801Z,5.12
2017-07-07T21:00:41.743Z,5.37
2017-07-07T21:03:07.949Z,4.80
2017-07-07T21:05:34.116Z,4.62
2017-07-07T21:08:00.384Z,4.80
2017-07-07T21:10:27.193Z,5.60
2017-07-07T21:12:53.370Z,4.60
2017-07-07T21:15:19.583Z,5.15
2017-07-07T21:17:45.801Z,5.12
2017-07-07T21:20:11.974Z,4.35
2017-07-07T21:22:38.923Z,4.85
2017-07-07T21:25:05.876Z,5.35
2017-07-07T21:27:32.171Z,4.70
2017-07-07T21:29:58.368Z,5.30
2017-07-07T21:32:24.575Z,5.30
2017-07-07T21:34:50.805Z,4.80
2017-07-07T21:37:16.988Z,4.90
2017-07-07T21:39:43.905Z,5.15
2017-07-07T21:42:10.109Z,4.70
2017-07-07T21:44:36.298Z,5.60
2017-07-07T21:47:03.247Z,4.50
2017-07-07T21:49:30.152Z,5.22
2017-07-07T21:51:56.337Z,5.70
2017-07-07T21:54:22.569Z,5.22
2017-07-07T21:56:48.797Z,5.15
2017-07-07T21:59:14.973Z,5.35
2017-07-07T22:01:41.204Z,4.90
2017-07-07T22:04:07.403Z,5.60
2017-07-07T22:06:33.580Z,5.30
2017-07-07T22:08:59.761Z,4.68
2017-07-07T22:11:25.961Z,5.28
2017-07-07T22:13:52.155Z,6.15
2017-07-07T22:16:19.071Z,5.50
2017-07-07T22:18:45.275Z,5.18
2017-07-07T22:21:11.485Z,5.68
2017-07-07T22:23:37.689Z,5.20
2017-07-07T22:26:03.868Z,5.05
2017-07-07T22:28:30.084Z,5.55
2017-07-07T22:30:56.261Z,5.10
2017-07-07T22:33:23.232Z,5.40
2017-07-07T22:35:49.408Z,5.70
2017-07-07T22:38:15.579Z,5.20
2017-07-07T22:40:41.768Z,4.60
2017-07-07T22:43:07.966Z,5.15
2017-07-07T22:45:34.160Z,5.87
2017-07-07T22:48:00.315Z,5.45
2017-07-07T22:50:26.518Z,6.07
2017-07-07T22:52:52.693Z,5.47
2017-07-07T22:55:18.920Z,5.60
2017-07-07T22:57:45.108Z,5.47
2017-07-07T23:00:11.273Z,5.40
2017-07-07T23:02:37.436Z,5.25
2017-07-07T23:05:03.652Z,5.12
2017-07-07T23:07:30.564Z,5.60
2017-07-07T23:09:56.737Z,5.70
2017-07-07T23:12:22.928Z,5.43
2017-07-07T23:14:49.844Z,5.20
2017-07-07T23:17:16.012Z,5.05
2017-07-07T23:19:42.962Z,6.03
2017-07-07T23:22:09.882Z,5.50
2017-07-07T23:24:36.420Z,5.65
2017-07-07T23:27:03.352Z,5.05
2017-07-07T23:29:29.516Z,5.12
2017-07-07T23:31:55.714Z,5.65
2017-07-07T23:34:21.882Z,5.95
2017-07-07T23:36:48.103Z,5.30
2017-07-07T23:39:14.284Z,5.97
2017-07-07T23:41:40.464Z,5.53
2017-07-07T23:44:06.649Z,5.18
2017-07-07T23:46:32.873Z,4.90
2017-07-07T23:48:59.808Z,6.30
2017-07-07T23:51:25.991Z,5.53
2017-07-07T23:53:52.229Z,5.53
2017-07-07T23:56:18.465Z,5.62
2017-07-07T23:58:44.628Z,5.85
